Time;durP1;ratioP1;P1;durP2;ratioP2;P2;SDS_P1;SDS_P2;PMS_P1;PMS_P2;Temp;Humidity;BMP_temperature;BMP_pressure;BME280_temperature;BME280_humidity;BME280_pressure;Samples;Min_cycle;Max_cycle;Signal;HPM_P1;HPM_P2
2022/10/07 00:01:55;;;;;;;;;;;11.20;52.60;;;;;;5033648;28;19909;-86
2022/10/07 00:04:21;;;;;;;;;;;11.10;52.60;;;;;;5035453;28;20058;-86
2022/10/07 00:06:47;;;;;;;;;;;11.10;52.60;;;;;;5045298;28;20004;-86
2022/10/07 00:09:12;;;;;;;;;;;11.10;52.60;;;;;;5036969;28;19917;-87
2022/10/07 00:11:38;;;;;;;;;;;11.00;52.50;;;;;;5035700;28;19921;-86
2022/10/07 00:14:07;;;;;;;;;;;11.00;52.40;;;;;;5053021;28;19996;-85
2022/10/07 00:16:37;;;;;;;;;;;11.00;52.50;;;;;;5035062;28;19920;-87
2022/10/07 00:19:04;;;;;;;;;;;11.00;52.60;;;;;;5053435;28;19908;-85
2022/10/07 00:21:34;;;;;;;;;;;11.00;53.20;;;;;;5035153;28;20384;-85
2022/10/07 00:23:59;;;;;;;;;;;11.00;53.20;;;;;;5053421;28;19995;-86
2022/10/07 00:26:26;;;;;;;;;;;10.90;53.00;;;;;;5053067;28;20003;-86
2022/10/07 00:28:52;;;;;;;;;;;10.90;53.10;;;;;;5055065;28;19954;-86
2022/10/07 00:31:19;;;;;;;;;;;10.90;53.40;;;;;;5036474;28;20335;-85
2022/10/07 00:33:45;;;;;;;;;;;10.90;53.40;;;;;;5051575;28;19916;-86
2022/10/07 00:36:13;;;;;;;;;;;10.90;53.30;;;;;;5035520;28;19913;-86
2022/10/07 00:38:39;;;;;;;;;;;10.90;53.40;;;;;;5035066;28;20270;-87
2022/10/07 00:41:05;;;;;;;;;;;10.90;53.20;;;;;;5052733;28;19919;-86
2022/10/07 00:43:31;;;;;;;;;;;10.80;53.00;;;;;;5034792;28;19921;-87
2022/10/07 00:45:59;;;;;;;;;;;10.80;53.00;;;;;;5034593;28;19909;-86
2022/10/07 00:48:29;;;;;;;;;;;10.80;53.20;;;;;;5034494;28;19974;-86
2022/10/07 00:50:56;;;;;;;;;;;10.80;53.20;;;;;;5052659;28;19936;-87
2022/10/07 00:53:23;;;;;;;;;;;10.80;53.10;;;;;;5034877;28;19919;-86
2022/10/07 00:55:49;;;;;;;;;;;10.70;53.10;;;;;;5034978;28;19971;-85
2022/10/07 00:58:15;;;;;;;;;;;10.70;53.10;;;;;;5034866;28;19956;-85
2022/10/07 01:00:41;;;;;;;;;;;10.70;53.40;;;;;;5052433;28;19908;-88
2022/10/07 01:03:07;;;;;;;;;;;10.70;53.40;;;;;;5052979;28;19920;-86
2022/10/07 01:05:33;;;;;;;;;;;10.70;53.30;;;;;;5052327;28;19908;-86
2022/10/07 01:08:01;;;;;;;;;;;10.70;53.30;;;;;;5052423;28;19921;-87
2022/10/07 01:10:32;;;;;;;;;;;10.60;53.30;;;;;;5052026;28;19917;-87
2022/10/07 01:13:20;;;;;;;;;;;10.60;53.70;;;;;;5051820;28;19927;-85
2022/10/07 01:15:52;;;;;;;;;;;10.60;53.60;;;;;;5022683;28;20277;-87
2022/10/07 01:18:26;;;;;;;;;;;10.60;53.70;;;;;;5052640;28;19947;-87
2022/10/07 01:21:02;;;;;;;;;;;10.60;53.80;;;;;;5034189;28;19909;-87
2022/10/07 01:23:38;;;;;;;;;;;10.60;53.80;;;;;;5033943;28;20075;-87
2022/10/07 01:26:04;;;;;;;;;;;10.60;53.70;;;;;;5051855;28;19909;-86
2022/10/07 01:28:36;;;;;;;;;;;10.60;53.60;;;;;;5033925;28;20269;-86
2022/10/07 01:31:04;;;;;;;;;;;10.50;53.60;;;;;;5034066;28;19917;-85
2022/10/07 01:33:31;;;;;;;;;;;10.50;53.70;;;;;;5033005;28;19921;-86
2022/10/07 01:36:01;;;;;;;;;;;10.50;53.60;;;;;;5033934;28;20315;-85
2022/10/07 01:38:28;;;;;;;;;;;10.50;53.60;;;;;;5051629;28;19917;-86
2022/10/07 01:40:56;;;;;;;;;;;10.40;53.80;;;;;;5050682;28;19935;-86
2022/10/07 01:43:22;;;;;;;;;;;10.40;53.80;;;;;;5050477;28;19955;-86
2022/10/07 01:45:50;;;;;;;;;;;10.40;53.80;;;;;;5034010;28;19962;-86
2022/10/07 01:48:16;;;;;;;;;;;10.30;53.80;;;;;;5051186;28;20015;-86
2022/10/07 01:50:46;;;;;;;;;;;10.30;53.90;;;;;;5051748;28;20008;-86
2022/10/07 01:53:30;;;;;;;;;;;10.30;54.00;;;;;;5033481;28;19913;-86
2022/10/07 01:56:09;;;;;;;;;;;10.30;53.90;;;;;;5033653;28;19916;-86
2022/10/07 01:58:37;;;;;;;;;;;10.20;54.20;;;;;;5051215;28;19923;-87
2022/10/07 02:01:28;;;;;;;;;;;10.20;54.10;;;;;;5033055;28;19909;-87
2022/10/07 02:04:12;;;;;;;;;;;10.20;54.20;;;;;;5051146;28;19924;-86
2022/10/07 02:06:58;;;;;;;;;;;10.20;54.30;;;;;;5033066;28;19909;-87
2022/10/07 02:09:47;;;;;;;;;;;10.20;54.50;;;;;;5048790;28;19927;-85
2022/10/07 02:12:14;;;;;;;;;;;10.20;54.50;;;;;;5041141;28;20050;-86
2022/10/07 02:14:45;;;;;;;;;;;10.20;54.60;;;;;;5032858;28;19920;-87
2022/10/07 02:17:14;;;;;;;;;;;10.20;54.60;;;;;;5050755;28;20012;-87
2022/10/07 02:19:43;;;;;;;;;;;10.20;54.70;;;;;;5050729;28;19921;-86
2022/10/07 02:22:10;;;;;;;;;;;10.20;54.80;;;;;;5050790;28;19909;-86
2022/10/07 02:24:36;;;;;;;;;;;10.20;55.10;;;;;;5050212;28;19913;-86
2022/10/07 02:27:04;;;;;;;;;;;10.20;55.20;;;;;;5032859;28;19925;-86
2022/10/07 02:29:32;;;;;;;;;;;10.20;55.30;;;;;;5050508;28;19920;-86
2022/10/07 02:31:59;;;;;;;;;;;10.20;55.20;;;;;;5050973;28;19963;-85
2022/10/07 02:34:27;;;;;;;;;;;10.20;55.30;;;;;;5050085;28;19948;-86
2022/10/07 02:37:04;;;;;;;;;;;10.20;55.20;;;;;;5032718;28;19923;-86
2022/10/07 02:39:30;;;;;;;;;;;10.20;55.30;;;;;;5050532;28;20349;-86
2022/10/07 02:42:03;;;;;;;;;;;10.20;55.50;;;;;;5032347;28;19948;-86
2022/10/07 02:44:32;;;;;;;;;;;10.10;55.60;;;;;;5050308;28;19909;-87
2022/10/07 02:47:02;;;;;;;;;;;10.10;55.60;;;;;;5050849;28;19960;-86
2022/10/07 02:49:29;;;;;;;;;;;10.10;55.60;;;;;;5050249;28;19920;-86
2022/10/07 02:52:00;;;;;;;;;;;10.10;55.70;;;;;;5032523;28;20003;-87
2022/10/07 02:54:31;;;;;;;;;;;10.10;55.70;;;;;;5032640;28;19963;-86
2022/10/07 02:56:57;;;;;;;;;;;10.00;55.90;;;;;;5032552;28;19988;-86
2022/10/07 02:59:23;;;;;;;;;;;10.00;56.00;;;;;;5050178;28;19912;-86
2022/10/07 03:01:51;;;;;;;;;;;10.00;56.10;;;;;;5050528;28;19924;-87
2022/10/07 03:04:17;;;;;;;;;;;10.00;56.20;;;;;;5032294;28;19944;-87
2022/10/07 03:06:43;;;;;;;;;;;9.90;56.30;;;;;;5047658;28;20607;-88
2022/10/07 03:09:09;;;;;;;;;;;9.90;56.30;;;;;;5046919;28;19936;-90
2022/10/07 03:11:37;;;;;;;;;;;9.80;56.30;;;;;;5053618;28;19917;-90
2022/10/07 03:14:04;;;;;;;;;;;9.80;56.40;;;;;;5051096;28;19920;-90
2022/10/07 03:16:30;;;;;;;;;;;9.80;56.60;;;;;;5031375;28;19917;-90
2022/10/07 03:18:57;;;;;;;;;;;9.80;56.80;;;;;;5025537;28;19955;-89
2022/10/07 03:21:24;;;;;;;;;;;9.80;57.00;;;;;;5031140;28;20375;-87
2022/10/07 03:23:54;;;;;;;;;;;9.80;57.10;;;;;;5051645;28;20008;-90
2022/10/07 03:26:19;;;;;;;;;;;9.80;57.10;;;;;;5027570;28;19955;-90
2022/10/07 03:28:45;;;;;;;;;;;9.80;57.00;;;;;;5023143;28;19952;-87
2022/10/07 03:31:11;;;;;;;;;;;9.70;57.20;;;;;;5025399;28;19963;-90
2022/10/07 03:33:37;;;;;;;;;;;9.80;57.50;;;;;;5043885;28;19908;-88
2022/10/07 03:36:04;;;;;;;;;;;9.80;57.60;;;;;;5030443;28;20016;-86
2022/10/07 03:38:30;;;;;;;;;;;9.80;57.80;;;;;;5052679;28;19944;-90
2022/10/07 03:40:56;;;;;;;;;;;9.80;58.00;;;;;;5051810;28;20383;-90
2022/10/07 03:43:22;;;;;;;;;;;9.80;58.20;;;;;;5035487;28;20008;-88
2022/10/07 03:45:49;;;;;;;;;;;9.80;58.20;;;;;;5052516;28;19917;-91
2022/10/07 03:48:14;;;;;;;;;;;9.80;58.20;;;;;;5039442;28;19913;-90
2022/10/07 03:50:40;;;;;;;;;;;9.80;58.20;;;;;;5056013;28;19925;-89
2022/10/07 03:53:06;;;;;;;;;;;9.80;58.40;;;;;;5040996;28;19996;-90
2022/10/07 03:55:31;;;;;;;;;;;9.80;58.30;;;;;;5055557;28;19932;-85
2022/10/07 03:58:00;;;;;;;;;;;9.90;58.40;;;;;;5054831;28;20291;-89
2022/10/07 04:00:26;;;;;;;;;;;9.90;58.20;;;;;;5034780;28;19970;-88
2022/10/07 04:02:52;;;;;;;;;;;9.80;58.10;;;;;;5051036;28;19920;-90
2022/10/07 04:05:19;;;;;;;;;;;9.80;58.20;;;;;;5034217;28;19924;-89
2022/10/07 04:07:45;;;;;;;;;;;9.90;58.30;;;;;;5036935;28;20016;-86
2022/10/07 04:10:12;;;;;;;;;;;9.90;58.40;;;;;;5052406;28;19959;-89
2022/10/07 04:12:38;;;;;;;;;;;9.80;58.30;;;;;;5041688;28;20344;-88
2022/10/07 04:15:04;;;;;;;;;;;9.90;58.40;;;;;;5050632;28;19915;-89
2022/10/07 04:17:30;;;;;;;;;;;9.80;58.30;;;;;;5016907;28;19917;-88
2022/10/07 04:19:56;;;;;;;;;;;9.80;58.20;;;;;;5048034;28;20390;-86
2022/10/07 04:22:22;;;;;;;;;;;9.80;58.20;;;;;;5026021;28;19920;-90
2022/10/07 04:25:32;;;;;;;;;;;9.80;58.10;;;;;;5031762;28;19974;-90
2022/10/07 04:27:34;;;;;;;;;;;9.80;58.10;;;;;;5055063;28;20432;-88
2022/10/07 04:30:00;;;;;;;;;;;9.80;58.20;;;;;;5053874;28;20007;-89
2022/10/07 04:32:26;;;;;;;;;;;9.80;58.20;;;;;;5044429;28;20018;-86
2022/10/07 04:34:52;;;;;;;;;;;9.80;58.20;;;;;;5057741;28;19955;-87
2022/10/07 04:37:18;;;;;;;;;;;9.70;58.30;;;;;;5065237;28;19923;-89
2022/10/07 04:39:44;;;;;;;;;;;9.70;58.30;;;;;;5068288;28;19913;-86
2022/10/07 04:43:17;;;;;;;;;;;9.70;58.20;;;;;;5053225;28;19932;-87
2022/10/07 04:44:58;;;;;;;;;;;9.70;58.20;;;;;;5052961;28;19909;-89
2022/10/07 04:47:24;;;;;;;;;;;9.60;58.40;;;;;;5031897;28;19920;-86
2022/10/07 04:49:52;;;;;;;;;;;9.60;58.40;;;;;;5031472;28;19917;-88
2022/10/07 04:52:19;;;;;;;;;;;9.60;58.40;;;;;;5033449;28;20514;-86
2022/10/07 04:54:45;;;;;;;;;;;9.60;58.40;;;;;;5032636;28;19932;-86
2022/10/07 04:57:12;;;;;;;;;;;9.60;58.40;;;;;;5033808;28;20308;-86
2022/10/07 04:59:38;;;;;;;;;;;9.60;58.60;;;;;;5055766;28;19947;-88
2022/10/07 05:02:04;;;;;;;;;;;9.70;58.80;;;;;;5034924;28;19920;-88
2022/10/07 05:04:29;;;;;;;;;;;9.80;59.00;;;;;;5039648;28;19908;-88
2022/10/07 05:06:55;;;;;;;;;;;9.80;59.30;;;;;;5052900;28;19917;-89
2022/10/07 05:09:21;;;;;;;;;;;9.90;59.80;;;;;;5034025;28;19917;-89
2022/10/07 05:11:47;;;;;;;;;;;10.00;60.20;;;;;;5033659;28;20506;-88
2022/10/07 05:14:13;;;;;;;;;;;10.20;60.40;;;;;;5055537;28;19928;-88
2022/10/07 05:16:39;;;;;;;;;;;10.30;60.40;;;;;;5034581;28;19916;-89
2022/10/07 05:19:05;;;;;;;;;;;10.40;60.50;;;;;;5053488;28;20517;-85
2022/10/07 05:21:32;;;;;;;;;;;10.50;60.60;;;;;;5052201;28;19917;-89
2022/10/07 05:23:58;;;;;;;;;;;10.70;60.60;;;;;;5048952;28;19920;-88
2022/10/07 05:26:24;;;;;;;;;;;10.80;60.80;;;;;;5052033;28;20016;-89
2022/10/07 05:28:52;;;;;;;;;;;10.90;60.80;;;;;;5050536;28;19920;-90
2022/10/07 05:31:19;;;;;;;;;;;11.00;60.90;;;;;;5034037;28;19921;-89
2022/10/07 05:33:46;;;;;;;;;;;11.10;60.90;;;;;;5033152;28;20391;-89
2022/10/07 05:36:12;;;;;;;;;;;11.20;60.90;;;;;;5052213;28;19917;-86
2022/10/07 05:38:38;;;;;;;;;;;11.30;60.90;;;;;;5033748;28;20371;-89
2022/10/07 05:41:04;;;;;;;;;;;11.40;61.00;;;;;;5033620;28;20382;-86
2022/10/07 05:43:31;;;;;;;;;;;11.50;61.00;;;;;;5051604;28;20530;-89
2022/10/07 05:45:59;;;;;;;;;;;11.60;61.20;;;;;;5049592;28;19913;-89
2022/10/07 05:48:27;;;;;;;;;;;11.70;61.30;;;;;;5033025;28;19925;-88
2022/10/07 05:50:53;;;;;;;;;;;11.80;61.50;;;;;;5049355;28;19925;-86
2022/10/07 05:53:19;;;;;;;;;;;11.80;61.60;;;;;;5049699;28;20380;-89
2022/10/07 05:55:45;;;;;;;;;;;11.90;61.90;;;;;;5050131;28;20478;-88
2022/10/07 05:58:12;;;;;;;;;;;12.10;62.30;;;;;;5031708;28;19924;-89
2022/10/07 06:00:41;;;;;;;;;;;12.30;62.70;;;;;;5031343;28;20426;-89
2022/10/07 06:03:07;;;;;;;;;;;12.50;63.10;;;;;;5031910;28;19925;-89
2022/10/07 06:05:34;;;;;;;;;;;12.70;63.60;;;;;;5049689;28;19916;-89
2022/10/07 06:07:59;;;;;;;;;;;13.10;63.80;;;;;;5049342;28;19917;-89
2022/10/07 06:13:09;;;;;;;;;;;13.70;64.30;;;;;;5049612;28;20004;-88
2022/10/07 06:15:35;;;;;;;;;;;14.10;64.80;;;;;;5050178;28;20670;-88
2022/10/07 06:18:02;;;;;;;;;;;14.40;64.60;;;;;;5033267;28;19971;-90
2022/10/07 06:20:27;;;;;;;;;;;14.80;64.90;;;;;;5050455;28;19908;-89
2022/10/07 06:22:54;;;;;;;;;;;15.20;65.00;;;;;;5051422;28;19984;-87
2022/10/07 06:25:19;;;;;;;;;;;15.50;64.90;;;;;;5044759;28;19912;-87
2022/10/07 06:27:46;;;;;;;;;;;15.80;64.90;;;;;;5024941;28;19939;-90
2022/10/07 06:30:12;;;;;;;;;;;16.20;64.70;;;;;;5032925;28;19931;-89
2022/10/07 06:32:37;;;;;;;;;;;16.60;64.60;;;;;;5046393;28;20019;-89
2022/10/07 06:35:03;;;;;;;;;;;16.90;64.70;;;;;;5049411;28;20307;-89
2022/10/07 06:37:30;;;;;;;;;;;17.20;64.20;;;;;;5050960;28;19920;-86
2022/10/07 06:39:56;;;;;;;;;;;17.60;64.20;;;;;;5051643;28;19934;-86
2022/10/07 06:42:21;;;;;;;;;;;17.90;63.80;;;;;;5030305;28;20011;-87
2022/10/07 06:44:47;;;;;;;;;;;18.20;63.60;;;;;;5053580;28;19961;-90
2022/10/07 06:47:12;;;;;;;;;;;18.60;63.30;;;;;;5049103;28;20413;-87
2022/10/07 06:49:38;;;;;;;;;;;18.80;62.70;;;;;;5051837;28;19939;-88
2022/10/07 06:52:08;;;;;;;;;;;19.20;62.20;;;;;;5054249;28;20370;-88
2022/10/07 06:54:33;;;;;;;;;;;19.50;61.60;;;;;;5044408;28;20001;-88
2022/10/07 06:56:59;;;;;;;;;;;19.80;61.90;;;;;;5033381;28;19937;-89
2022/10/07 06:59:24;;;;;;;;;;;20.10;62.10;;;;;;5054579;28;19912;-91
2022/10/07 07:01:52;;;;;;;;;;;20.40;61.20;;;;;;5034076;28;20007;-91
2022/10/07 07:04:18;;;;;;;;;;;20.70;61.60;;;;;;5033638;28;19920;-91
2022/10/07 07:06:43;;;;;;;;;;;21.20;62.00;;;;;;5048214;28;20026;-86
2022/10/07 07:09:09;;;;;;;;;;;21.50;61.30;;;;;;5033233;28;19996;-89
2022/10/07 07:11:34;;;;;;;;;;;21.80;61.80;;;;;;5053082;28;19925;-88
2022/10/07 07:14:01;;;;;;;;;;;22.20;61.60;;;;;;5055280;28;19948;-89
2022/10/07 07:16:26;;;;;;;;;;;22.50;61.80;;;;;;5032606;28;19928;-90
2022/10/07 07:18:56;;;;;;;;;;;22.80;60.80;;;;;;5062536;28;19917;-88
2022/10/07 07:21:22;;;;;;;;;;;23.20;60.40;;;;;;5056613;28;19912;-90
2022/10/07 07:23:47;;;;;;;;;;;23.50;60.20;;;;;;5055382;28;20016;-91
2022/10/07 07:26:13;;;;;;;;;;;23.80;60.20;;;;;;5042322;28;19909;-89
2022/10/07 07:28:39;;;;;;;;;;;24.10;59.40;;;;;;5031868;28;19921;-89
2022/10/07 07:31:09;;;;;;;;;;;24.40;58.90;;;;;;5035690;28;20469;-90
2022/10/07 07:33:37;;;;;;;;;;;24.70;58.70;;;;;;5053823;28;19944;-89
2022/10/07 07:36:14;;;;;;;;;;;25.20;61.20;;;;;;5050450;28;20032;-88
2022/10/07 07:38:41;;;;;;;;;;;25.50;56.90;;;;;;5056314;28;20469;-91
2022/10/07 07:41:06;;;;;;;;;;;25.80;57.60;;;;;;5046401;28;19991;-87
2022/10/07 07:43:32;;;;;;;;;;;26.10;57.00;;;;;;5056101;28;19924;-87
2022/10/07 07:45:57;;;;;;;;;;;26.30;56.50;;;;;;5066361;28;19978;-87
2022/10/07 07:48:23;;;;;;;;;;;26.60;55.70;;;;;;5046327;28;19931;-89
2022/10/07 07:50:49;;;;;;;;;;;26.80;53.40;;;;;;5042807;28;19987;-90
2022/10/07 07:53:14;;;;;;;;;;;27.00;52.80;;;;;;5061714;28;20400;-91
2022/10/07 07:55:50;;;;;;;;;;;27.20;49.80;;;;;;5061116;28;20003;-89
2022/10/07 07:58:16;;;;;;;;;;;27.30;50.70;;;;;;5046400;28;19929;-89
2022/10/07 08:00:42;;;;;;;;;;;27.60;49.60;;;;;;5031620;28;19916;-84
2022/10/07 08:03:08;;;;;;;;;;;27.80;50.00;;;;;;5050040;28;19962;-89
2022/10/07 08:05:33;;;;;;;;;;;28.00;44.20;;;;;;5050663;28;19921;-90
2022/10/07 08:07:59;;;;;;;;;;;28.00;43.80;;;;;;5053494;28;19917;-89
2022/10/07 08:10:26;;;;;;;;;;;28.20;46.50;;;;;;5031942;28;19921;-87
2022/10/07 08:12:51;;;;;;;;;;;28.40;46.00;;;;;;5052665;28;20610;-88
2022/10/07 08:15:19;;;;;;;;;;;28.60;43.30;;;;;;5051378;28;19919;-87
2022/10/07 08:17:44;;;;;;;;;;;28.80;41.90;;;;;;5051831;28;19925;-89
2022/10/07 08:20:14;;;;;;;;;;;28.80;38.50;;;;;;5034433;28;19928;-89
2022/10/07 08:22:39;;;;;;;;;;;29.00;39.30;;;;;;5049388;28;20399;-86
2022/10/07 08:25:06;;;;;;;;;;;29.10;37.60;;;;;;5054016;28;19924;-90
2022/10/07 08:27:40;;;;;;;;;;;29.20;37.30;;;;;;5028745;28;19952;-90
2022/10/07 08:30:24;;;;;;;;;;;29.30;37.20;;;;;;5030493;28;20765;-88
2022/10/07 08:32:50;;;;;;;;;;;29.50;36.60;;;;;;5047818;28;20394;-87
2022/10/07 08:35:16;;;;;;;;;;;29.60;35.10;;;;;;5032301;28;19956;-89
2022/10/07 08:37:42;;;;;;;;;;;29.70;34.70;;;;;;5049376;28;19976;-89
2022/10/07 08:40:17;;;;;;;;;;;29.70;34.00;;;;;;5032897;28;20555;-87
2022/10/07 08:42:43;;;;;;;;;;;29.90;35.80;;;;;;5039281;28;19916;-89
2022/10/07 08:45:15;;;;;;;;;;;30.10;34.50;;;;;;5049350;28;19923;-89
2022/10/07 08:47:42;;;;;;;;;;;30.20;33.30;;;;;;5034973;28;20031;-90
2022/10/07 08:50:24;;;;;;;;;;;30.20;32.50;;;;;;5034813;28;20368;-90
2022/10/07 08:53:01;;;;;;;;;;;30.30;32.80;;;;;;5033097;28;19917;-90
2022/10/07 08:55:35;;;;;;;;;;;30.50;33.30;;;;;;5026101;28;20300;-90
2022/10/07 08:58:19;;;;;;;;;;;30.60;31.80;;;;;;5043802;28;20611;-87
2022/10/07 09:00:49;;;;;;;;;;;30.60;30.20;;;;;;5033991;28;19917;-90
2022/10/07 09:03:37;;;;;;;;;;;30.60;31.20;;;;;;5050049;28;20269;-86
2022/10/07 09:06:12;;;;;;;;;;;30.70;31.20;;;;;;5023909;28;20348;-89
2022/10/07 09:08:47;;;;;;;;;;;30.70;28.70;;;;;;5049134;28;20364;-88
2022/10/07 09:11:17;;;;;;;;;;;30.60;28.60;;;;;;5030639;28;19920;-87
2022/10/07 09:13:56;;;;;;;;;;;30.60;28.90;;;;;;5056211;28;19917;-89
2022/10/07 09:16:31;;;;;;;;;;;30.60;28.40;;;;;;5048189;28;19913;-89
2022/10/07 09:18:58;;;;;;;;;;;30.70;29.50;;;;;;5036850;28;20363;-90
2022/10/07 09:21:47;;;;;;;;;;;30.80;28.10;;;;;;5036932;28;19952;-89
2022/10/07 09:24:23;;;;;;;;;;;30.80;28.40;;;;;;5024546;28;20435;-86
2022/10/07 09:26:50;;;;;;;;;;;30.90;28.20;;;;;;5031106;28;19963;-89
2022/10/07 09:29:20;;;;;;;;;;;30.80;27.70;;;;;;5045246;28;19995;-89
2022/10/07 09:32:00;;;;;;;;;;;30.80;27.80;;;;;;5038800;28;19925;-91
2022/10/07 09:34:28;;;;;;;;;;;30.90;28.50;;;;;;5047843;28;20004;-86
2022/10/07 09:37:08;;;;;;;;;;;31.00;29.40;;;;;;5038631;28;19965;-90
2022/10/07 09:39:34;;;;;;;;;;;31.20;29.70;;;;;;5052759;28;20019;-89
2022/10/07 09:42:00;;;;;;;;;;;31.30;29.00;;;;;;5035984;28;19955;-89
2022/10/07 09:44:26;;;;;;;;;;;31.30;28.40;;;;;;5036831;28;20363;-87
2022/10/07 09:46:58;;;;;;;;;;;31.50;29.20;;;;;;5053193;28;20291;-88
2022/10/07 09:49:28;;;;;;;;;;;31.60;28.90;;;;;;5037223;28;19928;-91
2022/10/07 09:52:22;;;;;;;;;;;31.80;29.00;;;;;;5039908;28;19919;-89
2022/10/07 09:54:48;;;;;;;;;;;32.00;28.40;;;;;;5046243;28;19924;-91
2022/10/07 09:57:20;;;;;;;;;;;32.00;27.70;;;;;;5055404;28;19912;-91
2022/10/07 09:59:46;;;;;;;;;;;32.10;27.60;;;;;;5053539;28;19924;-88
2022/10/07 10:02:14;;;;;;;;;;;32.20;27.90;;;;;;5074109;28;19912;-89
2022/10/07 10:04:53;;;;;;;;;;;32.30;27.90;;;;;;5080896;28;19936;-87
2022/10/07 10:07:20;;;;;;;;;;;32.40;26.80;;;;;;5056459;28;20041;-89
2022/10/07 10:10:15;;;;;;;;;;;32.20;25.70;;;;;;5055382;28;19923;-86
2022/10/07 10:12:45;;;;;;;;;;;32.30;25.90;;;;;;5040763;28;19937;-90
2022/10/07 10:15:27;;;;;;;;;;;32.00;25.10;;;;;;5036020;28;19915;-89
2022/10/07 10:17:55;;;;;;;;;;;32.00;25.60;;;;;;5036071;28;20004;-90
2022/10/07 10:20:29;;;;;;;;;;;32.00;26.20;;;;;;5031737;28;19909;-89
2022/10/07 10:23:03;;;;;;;;;;;32.10;25.80;;;;;;5055278;28;19921;-86
2022/10/07 10:29:00;;;;;;;;;;;32.10;26.00;;;;;;5049338;28;20008;-90
2022/10/07 10:31:31;;;;;;;;;;;32.20;25.60;;;;;;4998171;28;19940;-88
2022/10/07 10:34:03;;;;;;;;;;;32.20;25.10;;;;;;5033212;28;19960;-89
2022/10/07 10:36:31;;;;;;;;;;;32.20;25.10;;;;;;5038581;28;19921;-87
2022/10/07 10:39:15;;;;;;;;;;;32.30;25.10;;;;;;5035590;28;19927;-91
2022/10/07 10:41:49;;;;;;;;;;;32.50;25.80;;;;;;5034601;28;20030;-89
2022/10/07 10:44:26;;;;;;;;;;;32.80;25.70;;;;;;5033264;28;19970;-86
2022/10/07 10:47:11;;;;;;;;;;;33.10;25.10;;;;;;5054157;28;19908;-88
2022/10/07 10:49:41;;;;;;;;;;;33.30;24.60;;;;;;5035086;28;20398;-88
2022/10/07 10:52:17;;;;;;;;;;;33.30;23.90;;;;;;5053434;28;19912;-89
2022/10/07 10:54:46;;;;;;;;;;;33.30;24.10;;;;;;5052730;28;19921;-88
2022/10/07 10:57:30;;;;;;;;;;;33.30;23.80;;;;;;5080600;28;19912;-90
2022/10/07 10:59:59;;;;;;;;;;;33.40;24.20;;;;;;5056062;28;19917;-88
2022/10/07 11:02:35;;;;;;;;;;;33.40;23.90;;;;;;5054610;28;19920;-88
2022/10/07 11:05:24;;;;;;;;;;;33.40;23.60;;;;;;5052865;28;19922;-89
2022/10/07 11:07:52;;;;;;;;;;;33.40;23.60;;;;;;5058975;28;20323;-89
2022/10/07 11:10:21;;;;;;;;;;;33.00;23.40;;;;;;5072301;28;19931;-89
2022/10/07 11:12:53;;;;;;;;;;;32.90;24.00;;;;;;5073771;28;19913;-89
2022/10/07 11:15:18;;;;;;;;;;;32.70;23.80;;;;;;5045548;28;19917;-92
2022/10/07 11:17:48;;;;;;;;;;;32.30;24.00;;;;;;5050770;28;20367;-91
2022/10/07 11:20:30;;;;;;;;;;;32.10;23.90;;;;;;5038434;28;19931;-86
2022/10/07 11:22:59;;;;;;;;;;;32.00;24.10;;;;;;5055615;28;19913;-88
2022/10/07 11:25:24;;;;;;;;;;;32.10;24.00;;;;;;5036542;28;20318;-87
2022/10/07 11:27:53;;;;;;;;;;;32.20;23.70;;;;;;5033850;28;19909;-88
2022/10/07 11:30:20;;;;;;;;;;;32.30;23.90;;;;;;5053421;28;20018;-90
2022/10/07 11:32:55;;;;;;;;;;;32.50;24.20;;;;;;5055392;28;20318;-91
2022/10/07 11:35:31;;;;;;;;;;;32.80;23.80;;;;;;5052722;28;19923;-87
2022/10/07 11:38:09;;;;;;;;;;;32.80;23.60;;;;;;5034078;28;19913;-90
2022/10/07 11:40:41;;;;;;;;;;;32.50;23.60;;;;;;5035627;28;19940;-90
2022/10/07 11:43:11;;;;;;;;;;;32.50;23.80;;;;;;5034092;28;20350;-87
2022/10/07 11:45:42;;;;;;;;;;;32.50;23.80;;;;;;5051361;28;19927;-90
2022/10/07 11:48:17;;;;;;;;;;;32.50;23.40;;;;;;5037135;28;19930;-86
2022/10/07 11:50:47;;;;;;;;;;;32.20;23.60;;;;;;5057402;28;20061;-89
2022/10/07 11:53:37;;;;;;;;;;;31.80;23.10;;;;;;5056854;28;19915;-90
2022/10/07 11:56:15;;;;;;;;;;;31.70;23.60;;;;;;5040528;28;19921;-88
2022/10/07 11:58:42;;;;;;;;;;;31.70;24.00;;;;;;5036418;28;19913;-90
2022/10/07 12:01:29;;;;;;;;;;;31.60;23.80;;;;;;5059337;28;19912;-88
2022/10/07 12:04:01;;;;;;;;;;;31.70;23.90;;;;;;5042581;28;19917;-89
2022/10/07 12:06:27;;;;;;;;;;;31.40;24.20;;;;;;5056967;28;19967;-90
2022/10/07 12:08:53;;;;;;;;;;;31.50;24.60;;;;;;5062883;28;19897;-90
2022/10/07 12:11:19;;;;;;;;;;;31.70;24.30;;;;;;5040485;28;19974;-86
2022/10/07 12:13:46;;;;;;;;;;;31.80;24.20;;;;;;5057162;28;20371;-89
2022/10/07 12:16:29;;;;;;;;;;;31.90;24.30;;;;;;5039993;28;19944;-87
2022/10/07 12:19:09;;;;;;;;;;;32.00;24.00;;;;;;5053163;28;19912;-91
2022/10/07 12:21:58;;;;;;;;;;;31.90;23.80;;;;;;5039160;28;19916;-91
2022/10/07 12:24:24;;;;;;;;;;;31.80;23.50;;;;;;5059176;28;19983;-89
2022/10/07 12:26:50;;;;;;;;;;;31.60;23.30;;;;;;5062079;28;19912;-89
2022/10/07 12:29:18;;;;;;;;;;;31.30;23.50;;;;;;5077332;28;20310;-89
2022/10/07 12:31:45;;;;;;;;;;;31.20;23.90;;;;;;5060697;28;19921;-85
2022/10/07 12:34:20;;;;;;;;;;;31.10;23.90;;;;;;5040538;28;19912;-90
2022/10/07 12:36:45;;;;;;;;;;;31.10;24.10;;;;;;5037360;28;20339;-86
2022/10/07 12:39:11;;;;;;;;;;;31.00;24.30;;;;;;5062209;28;19917;-90
2022/10/07 12:41:41;;;;;;;;;;;31.00;24.50;;;;;;5056013;28;19912;-91
2022/10/07 12:44:07;;;;;;;;;;;30.90;24.80;;;;;;5056340;28;19924;-89
2022/10/07 12:46:49;;;;;;;;;;;30.80;24.90;;;;;;5054130;28;19909;-88
2022/10/07 12:49:15;;;;;;;;;;;30.70;24.90;;;;;;5037885;28;20272;-90
2022/10/07 12:51:42;;;;;;;;;;;30.40;25.10;;;;;;5036467;28;19963;-87
2022/10/07 12:54:26;;;;;;;;;;;30.20;25.50;;;;;;5055686;28;19921;-91
2022/10/07 12:56:52;;;;;;;;;;;29.80;25.80;;;;;;5059578;28;19937;-89
2022/10/07 13:02:27;;;;;;;;;;;28.80;26.50;;;;;;5056178;28;19919;-88
2022/10/07 13:05:11;;;;;;;;;;;28.20;26.80;;;;;;5066973;28;19916;-90
2022/10/07 13:07:55;;;;;;;;;;;27.70;27.20;;;;;;5071452;28;19912;-88
2022/10/07 13:10:29;;;;;;;;;;;27.30;27.70;;;;;;5060615;28;19929;-89
2022/10/07 13:13:05;;;;;;;;;;;26.80;28.10;;;;;;5033270;28;20481;-88
2022/10/07 13:15:43;;;;;;;;;;;26.50;28.50;;;;;;5050339;28;20007;-90
2022/10/07 13:18:19;;;;;;;;;;;26.20;29.00;;;;;;5039616;28;20351;-87
2022/10/07 13:20:55;;;;;;;;;;;26.00;29.40;;;;;;5054561;28;19916;-90
2022/10/07 13:23:21;;;;;;;;;;;25.80;29.70;;;;;;5058986;28;19912;-88
2022/10/07 13:25:50;;;;;;;;;;;25.60;30.00;;;;;;5073838;28;19921;-90
2022/10/07 13:28:17;;;;;;;;;;;25.50;30.30;;;;;;5075681;28;20348;-91
2022/10/07 13:30:43;;;;;;;;;;;25.40;30.50;;;;;;5068340;28;19925;-89
2022/10/07 13:33:32;;;;;;;;;;;25.30;30.70;;;;;;5054002;28;20248;-91
2022/10/07 13:36:10;;;;;;;;;;;25.10;30.90;;;;;;5039630;28;19935;-90
2022/10/07 13:38:35;;;;;;;;;;;25.00;31.20;;;;;;5048281;28;19916;-87
2022/10/07 13:41:21;;;;;;;;;;;25.00;31.40;;;;;;5053158;28;19919;-90
2022/10/07 13:43:51;;;;;;;;;;;24.90;31.60;;;;;;5050117;28;19924;-91
2022/10/07 13:46:17;;;;;;;;;;;24.90;31.80;;;;;;5052116;28;19913;-90
2022/10/07 13:48:43;;;;;;;;;;;24.80;31.90;;;;;;5035137;28;19982;-87
2022/10/07 13:51:12;;;;;;;;;;;24.80;32.10;;;;;;5055800;28;19924;-87
2022/10/07 13:53:38;;;;;;;;;;;24.80;32.30;;;;;;5047307;28;19931;-89
2022/10/07 13:56:22;;;;;;;;;;;24.80;32.40;;;;;;5052637;28;19988;-89
2022/10/07 13:58:48;;;;;;;;;;;24.80;32.40;;;;;;5051060;28;19921;-90
2022/10/07 14:01:13;;;;;;;;;;;24.70;32.40;;;;;;5031409;28;19923;-90
2022/10/07 14:04:01;;;;;;;;;;;24.60;32.50;;;;;;5050626;28;19920;-92
2022/10/07 14:06:38;;;;;;;;;;;24.50;32.70;;;;;;5050138;28;19912;-92
2022/10/07 14:09:14;;;;;;;;;;;24.40;32.80;;;;;;5028389;28;20029;-89
2022/10/07 14:11:40;;;;;;;;;;;24.30;33.00;;;;;;5033420;28;20386;-89
2022/10/07 14:14:16;;;;;;;;;;;24.30;33.10;;;;;;5052521;28;19916;-90
2022/10/07 14:16:44;;;;;;;;;;;24.40;33.20;;;;;;5046569;28;19934;-91
2022/10/07 14:19:15;;;;;;;;;;;24.30;33.20;;;;;;5035136;28;19924;-90
2022/10/07 14:21:40;;;;;;;;;;;24.30;33.20;;;;;;5032500;28;20011;-86
2022/10/07 14:24:07;;;;;;;;;;;24.30;33.30;;;;;;5048968;28;19999;-88
2022/10/07 14:26:42;;;;;;;;;;;24.20;33.40;;;;;;5054266;28;20375;-87
2022/10/07 14:29:41;;;;;;;;;;;24.20;33.50;;;;;;5034414;28;19916;-89
2022/10/07 14:37:41;;;;;;;;;;;24.00;33.80;;;;;;5051402;28;19988;-86
2022/10/07 14:40:16;;;;;;;;;;;24.00;33.80;;;;;;5049679;28;19913;-88
2022/10/07 14:42:42;;;;;;;;;;;24.00;33.90;;;;;;5029440;28;19923;-88
2022/10/07 14:45:15;;;;;;;;;;;24.00;34.00;;;;;;5032716;28;20363;-92
2022/10/07 14:47:44;;;;;;;;;;;23.90;33.90;;;;;;5031139;28;19963;-88
2022/10/07 14:50:11;;;;;;;;;;;23.90;33.90;;;;;;5036848;28;20011;-90